Time;durP1;ratioP1;P1;durP2;ratioP2;P2;SDS_P1;SDS_P2;PMS_P1;PMS_P2;Temp;Humidity;BMP_temperature;BMP_pressure;BME280_temperature;BME280_humidity;BME280_pressure;Samples;Min_cycle;Max_cycle;Signal;HPM_P1;HPM_P2
2023/03/27 00:01:20;;;;;;;0.47;0.22;;;;;;;;;;4943670;28;20031;-82
2023/03/27 00:03:48;;;;;;;1.23;0.30;;;;;;;;;;4944319;28;20046;-83
2023/03/27 00:06:16;;;;;;;0.68;0.50;;;7.80;99.90;;;;;;4939235;28;20031;-83
2023/03/27 00:08:43;;;;;;;1.08;0.43;;;;;;;;;;4947481;28;20046;-82
2023/03/27 00:11:09;;;;;;;0.63;0.30;;;;;;;;;;4948592;28;20031;-83
2023/03/27 00:13:35;;;;;;;0.70;0.30;;;7.80;99.90;;;;;;4946477;28;20042;-83
2023/03/27 00:16:04;;;;;;;0.57;0.43;;;;;;;;;;4949402;28;20462;-81
2023/03/27 00:18:29;;;;;;;0.68;0.40;;;;;;;;;;4946700;28;20130;-84
2023/03/27 00:21:00;;;;;;;2.40;0.68;;;;;;;;;;4944606;28;20110;-80
2023/03/27 00:23:28;;;;;;;0.52;0.38;;;;;;;;;;4944609;28;20115;-82
2023/03/27 00:25:54;;;;;;;0.38;0.20;;;;;;;;;;4950433;28;20027;-81
2023/03/27 00:28:21;;;;;;;0.25;0.20;;;;;;;;;;4936793;28;20024;-81
2023/03/27 00:30:47;;;;;;;0.85;0.20;;;;;;;;;;4946907;28;20134;-82
2023/03/27 00:33:13;;;;;;;0.65;0.30;;;;;;;;;;4943908;28;20074;-82
2023/03/27 00:35:44;;;;;;;1.15;0.30;;;;;;;;;;4941099;28;20023;-81
2023/03/27 00:38:10;;;;;;;0.15;0.13;;;;;;;;;;4939545;28;20368;-82
2023/03/27 00:40:36;;;;;;;0.30;0.20;;;;;;;;;;4947826;28;20059;-83
2023/03/27 00:43:27;;;;;;;1.38;0.35;;;7.60;99.90;;;;;;4941364;28;20071;-81
2023/03/27 00:46:02;;;;;;;1.65;0.10;;;;;;;;;;4942448;28;20028;-80
2023/03/27 00:48:30;;;;;;;0.20;0.10;;;;;;;;;;4945542;28;20031;-81
2023/03/27 00:50:57;;;;;;;0.45;0.20;;;;;;;;;;4942046;29;20082;-81
2023/03/27 00:53:25;;;;;;;0.10;0.10;;;;;;;;;;4944454;28;20098;-82
2023/03/27 00:55:53;;;;;;;1.02;0.20;;;;;;;;;;4941598;28;20039;-83
2023/03/27 00:58:25;;;;;;;0.30;0.10;;;;;;;;;;4943784;28;20273;-82
2023/03/27 01:00:53;;;;;;;0.00;0.00;;;;;;;;;;4944073;28;20139;-85
2023/03/27 01:03:19;;;;;;;0.03;0.03;;;;;;;;;;4943708;28;20503;-83
2023/03/27 01:05:45;;;;;;;0.10;0.10;;;;;;;;;;4947760;28;20114;-81
2023/03/27 01:08:11;;;;;;;0.10;0.10;;;;;;;;;;4946465;28;20474;-80
2023/03/27 01:10:56;;;;;;;0.10;0.10;;;;;;;;;;4941184;28;20031;-80
2023/03/27 01:13:28;;;;;;;0.10;0.10;;;;;;;;;;4947264;28;20058;-80
2023/03/27 01:16:00;;;;;;;0.20;0.20;;;;;;;;;;4942095;28;20127;-85
2023/03/27 01:18:52;;;;;;;0.10;0.10;;;7.10;99.90;;;;;;4938702;28;20045;-81
2023/03/27 01:21:18;;;;;;;0.52;0.30;;;;;;;;;;4936077;28;20107;-81
2023/03/27 01:24:13;;;;;;;1.48;0.75;;;6.20;99.90;;;;;;4945382;28;20615;-82
2023/03/27 01:26:42;;;;;;;0.82;0.70;;;;;;;;;;4942300;28;22245;-83
2023/03/27 01:29:14;;;;;;;1.23;0.47;;;;;;;;;;4946653;28;20023;-82
2023/03/27 01:32:20;;;;;;;1.75;0.70;;;6.20;99.90;;;;;;4945918;28;20423;-83
2023/03/27 01:34:46;;;;;;;0.57;0.20;;;;;;;;;;4944223;28;20041;-84
2023/03/27 01:37:13;;;;;;;0.57;0.20;;;;;;;;;;4945166;28;20035;-82
2023/03/27 01:40:08;;;;;;;0.10;0.10;;;;;;;;;;4951697;28;20035;-81
2023/03/27 01:42:36;;;;;;;0.88;0.38;;;;;;;;;;4928911;28;20047;-84
2023/03/27 01:45:06;;;;;;;2.08;0.55;;;;;;;;;;4951629;28;20038;-82
2023/03/27 01:47:39;;;;;;;0.80;0.52;;;;;;;;;;4942653;28;20783;-83
2023/03/27 01:50:20;;;;;;;1.17;0.40;;;;;;;;;;4947358;28;20031;-81
2023/03/27 01:53:00;;;;;;;0.50;0.38;;;;;;;;;;4942515;28;20035;-82
2023/03/27 01:55:30;;;;;;;0.35;0.20;;;5.80;99.90;;;;;;4943441;28;20071;-84
2023/03/27 01:58:18;;;;;;;0.60;0.30;;;;;;;;;;4944078;28;20123;-83
2023/03/27 02:00:46;;;;;;;0.55;0.30;;;;;;;;;;4939240;28;20039;-81
2023/03/27 02:03:15;;;;;;;0.50;0.30;;;;;;;;;;4930497;28;20066;-81
2023/03/27 02:05:41;;;;;;;0.25;0.20;;;;;;;;;;4944799;28;20019;-82
2023/03/27 02:08:10;;;;;;;0.77;0.32;;;;;;;;;;4944363;28;20376;-81
2023/03/27 02:10:39;;;;;;;2.85;0.30;;;;;;;;;;4944835;28;20102;-80
2023/03/27 02:13:08;;;;;;;0.80;0.30;;;;;;;;;;4933553;28;20376;-82
2023/03/27 02:15:36;;;;;;;0.85;0.35;;;;;;;;;;4944018;28;20681;-81
2023/03/27 02:18:05;;;;;;;0.50;0.30;;;;;;;;;;4944111;28;20047;-81
2023/03/27 02:20:34;;;;;;;6.70;0.80;;;;;;;;;;4946167;28;20046;-82
2023/03/27 02:23:00;;;;;;;0.50;0.30;;;;;;;;;;4938769;28;20047;-81
2023/03/27 02:25:30;;;;;;;0.30;0.30;;;;;;;;;;4943943;28;20016;-79
2023/03/27 02:28:15;;;;;;;0.93;0.82;;;;;;;;;;4941739;28;20515;-82
2023/03/27 02:31:00;;;;;;;0.52;0.40;;;;;;;;;;4930807;28;21638;-81
2023/03/27 02:33:29;;;;;;;0.40;0.35;;;;;;;;;;4937615;28;20034;-81
2023/03/27 02:35:55;;;;;;;2.40;0.70;;;;;;;;;;4943398;28;20027;-82
2023/03/27 02:38:24;;;;;;;1.08;0.45;;;;;;;;;;4950924;28;20030;-79
2023/03/27 02:41:05;;;;;;;0.47;0.30;;;;;;;;;;4940798;28;20055;-82
2023/03/27 02:43:35;;;;;;;0.30;0.30;;;;;;;;;;4943676;28;20094;-83
2023/03/27 02:46:05;;;;;;;1.13;0.60;;;;;;;;;;4942356;28;20035;-82
2023/03/27 02:48:37;;;;;;;0.70;0.40;;;;;;;;;;4942891;28;20440;-83
2023/03/27 02:51:03;;;;;;;1.70;0.63;;;;;;;;;;4937506;28;20031;-83
2023/03/27 02:53:31;;;;;;;2.10;0.75;;;;;;;;;;4918482;28;20381;-81
2023/03/27 02:55:59;;;;;;;0.50;0.38;;;;;;;;;;4941781;28;20035;-82
2023/03/27 02:58:34;;;;;;;3.75;0.40;;;;;;;;;;4934596;28;20031;-82
2023/03/27 03:01:00;;;;;;;1.40;0.60;;;;;;;;;;4937608;28;20122;-83
2023/03/27 03:03:36;;;;;;;1.08;0.55;;;;;;;;;;4939802;28;20414;-82
2023/03/27 03:06:09;;;;;;;4.35;0.63;;;;;;;;;;4949041;28;20035;-81
2023/03/27 03:08:37;;;;;;;0.70;0.57;;;;;;;;;;4941056;28;20037;-82
2023/03/27 03:11:05;;;;;;;2.55;0.63;;;4.30;99.90;;;;;;4946780;28;20047;-82
2023/03/27 03:13:31;;;;;;;2.33;0.80;;;;;;;;;;4935806;28;20128;-83
2023/03/27 03:15:57;;;;;;;1.05;0.77;;;;;;;;;;4947616;28;20050;-82
2023/03/27 03:18:23;;;;;;;2.00;0.90;;;;;;;;;;4947209;28;20023;-82
2023/03/27 03:20:53;;;;;;;1.83;0.82;;;;;;;;;;4962867;28;20105;-82
2023/03/27 03:23:20;;;;;;;2.45;0.80;;;4.50;99.90;;;;;;4959155;28;20066;-81
2023/03/27 03:25:46;;;;;;;3.28;1.00;;;;;;;;;;4954660;28;20169;-82
2023/03/27 03:28:12;;;;;;;5.88;0.65;;;;;;;;;;4934647;28;20030;-82
2023/03/27 03:30:41;;;;;;;1.60;0.70;;;;;;;;;;4941010;28;20075;-81
2023/03/27 03:33:08;;;;;;;1.20;0.80;;;;;;;;;;4943200;28;20110;-83
2023/03/27 03:35:34;;;;;;;6.60;0.90;;;;;;;;;;4949766;28;20090;-84
2023/03/27 03:38:00;;;;;;;0.40;0.32;;;;;;;;;;4941797;28;20534;-84
2023/03/27 03:40:26;;;;;;;1.55;0.80;;;;;;;;;;4945725;28;20079;-83
2023/03/27 03:42:53;;;;;;;1.10;0.50;;;;;;;;;;4946479;28;20047;-82
2023/03/27 03:45:19;;;;;;;1.48;0.63;;;;;;;;;;4943933;28;20049;-82
2023/03/27 03:47:46;;;;;;;4.43;0.40;;;;;;;;;;4944569;28;20517;-81
2023/03/27 03:50:12;;;;;;;3.83;0.70;;;;;;;;;;4949759;28;20031;-82
2023/03/27 03:52:38;;;;;;;2.85;0.80;;;;;;;;;;4943939;28;20046;-78
2023/03/27 03:55:05;;;;;;;3.55;0.82;;;;;;;;;;4960159;28;20027;-81
2023/03/27 03:57:31;;;;;;;2.75;0.82;;;;;;;;;;4958110;28;20047;-79
2023/03/27 03:59:57;;;;;;;4.82;0.93;;;;;;;;;;4955347;28;20094;-81
2023/03/27 04:02:27;;;;;;;1.35;0.80;;;;;;;;;;4937766;28;20411;-82
2023/03/27 04:04:59;;;;;;;5.03;1.05;;;;;;;;;;4933394;28;20035;-81
2023/03/27 04:07:30;;;;;;;4.10;0.98;;;;;;;;;;4940883;28;20107;-82
2023/03/27 04:09:57;;;;;;;1.05;0.77;;;;;;;;;;4946500;28;20031;-80
2023/03/27 04:12:23;;;;;;;2.00;0.70;;;;;;;;;;4947122;28;20031;-81
2023/03/27 04:14:49;;;;;;;7.20;1.90;;;;;;;;;;4943406;28;20027;-81
2023/03/27 04:17:15;;;;;;;3.90;1.90;;;;;;;;;;4946821;28;20039;-82
2023/03/27 04:19:41;;;;;;;6.35;1.20;;;;;;;;;;4930584;28;20054;-78
2023/03/27 04:22:07;;;;;;;8.45;1.83;;;;;;;;;;4932006;28;20047;-78
2023/03/27 04:24:33;;;;;;;2.80;0.68;;;;;;;;;;4944349;28;20031;-78
2023/03/27 04:27:02;;;;;;;8.38;1.48;;;;;;;;;;4945526;28;20030;-78
2023/03/27 04:29:29;;;;;;;3.50;1.52;;;;;;;;;;4947844;28;20050;-79
2023/03/27 04:31:56;;;;;;;10.15;1.15;;;;;;;;;;4946074;28;20666;-78
2023/03/27 04:34:22;;;;;;;2.40;1.08;;;;;;;;;;4933649;28;20482;-78
2023/03/27 04:36:49;;;;;;;2.78;1.20;;;;;;;;;;4933258;28;20126;-80
2023/03/27 04:39:16;;;;;;;4.80;1.10;;;;;;;;;;4938190;28;20030;-77
2023/03/27 04:41:44;;;;;;;4.75;1.85;;;;;;;;;;4938533;28;20035;-80
2023/03/27 04:44:10;;;;;;;1.75;1.35;;;;;;;;;;4943382;28;20411;-83
2023/03/27 04:46:36;;;;;;;1.95;0.70;;;;;;;;;;4943443;28;20020;-78
2023/03/27 04:49:02;;;;;;;8.18;2.20;;;;;;;;;;4948238;28;20066;-80
2023/03/27 04:51:29;;;;;;;2.78;1.27;;;;;;;;;;4945594;28;20562;-80
2023/03/27 04:53:55;;;;;;;1.05;0.50;;;;;;;;;;4945167;28;20046;-81
2023/03/27 04:56:21;;;;;;;2.50;0.95;;;;;;;;;;4943031;28;20023;-80
2023/03/27 04:58:47;;;;;;;2.65;0.98;;;;;;;;;;4946321;28;20031;-79
2023/03/27 05:01:13;;;;;;;8.00;1.67;;;;;;;;;;4946898;28;20395;-78
2023/03/27 05:03:39;;;;;;;2.25;1.02;;;;;;;;;;4947126;28;20495;-78
2023/03/27 05:06:07;;;;;;;1.60;1.08;;;3.80;99.90;;;;;;4946102;28;20492;-80
2023/03/27 05:08:33;;;;;;;10.32;1.52;;;;;;;;;;4945542;28;20171;-77
2023/03/27 05:10:59;;;;;;;9.65;1.02;;;;;;;;;;4949777;28;20489;-78
2023/03/27 05:13:25;;;;;;;11.05;1.25;;;;;;;;;;4946378;28;20031;-79
2023/03/27 05:15:51;;;;;;;4.20;1.27;;;;;;;;;;4948045;28;20256;-78
2023/03/27 05:18:17;;;;;;;8.38;1.60;;;;;;;;;;4945040;28;20030;-79
2023/03/27 05:20:47;;;;;;;1.77;1.17;;;;;;;;;;4933859;28;20039;-79
2023/03/27 05:23:13;;;;;;;6.82;1.75;;;;;;;;;;4944521;28;20051;-78
2023/03/27 05:25:39;;;;;;;3.75;1.02;;;;;;;;;;4944460;28;20037;-79
2023/03/27 05:28:06;;;;;;;3.20;1.17;;;;;;;;;;4935013;28;20063;-77
2023/03/27 05:30:32;;;;;;;1.60;0.88;;;;;;;;;;4942248;28;20039;-79
2023/03/27 05:32:58;;;;;;;6.05;1.40;;;;;;;;;;4941422;28;20365;-79
2023/03/27 05:35:24;;;;;;;16.77;1.70;;;;;;;;;;4950296;28;20049;-78
2023/03/27 05:37:51;;;;;;;3.05;0.90;;;;;;;;;;4950910;28;20497;-79
2023/03/27 05:40:21;;;;;;;3.38;0.98;;;;;;;;;;4947836;28;20050;-77
2023/03/27 05:42:48;;;;;;;7.78;1.70;;;;;;;;;;4946183;28;20090;-77
2023/03/27 05:45:14;;;;;;;2.85;1.23;;;;;;;;;;4949605;28;20039;-82
2023/03/27 05:47:45;;;;;;;18.85;2.35;;;;;;;;;;4937897;28;20035;-82
2023/03/27 05:50:11;;;;;;;3.45;1.15;;;;;;;;;;4942481;28;20027;-79
2023/03/27 05:52:37;;;;;;;15.43;3.38;;;;;;;;;;4951682;28;20027;-81
2023/03/27 05:55:05;;;;;;;1.58;1.23;;;3.80;99.90;;;;;;4943641;29;20031;-80
2023/03/27 05:57:31;;;;;;;6.88;1.48;;;;;;;;;;4948096;28;20062;-80
2023/03/27 05:59:59;;;;;;;4.70;0.77;;;;;;;;;;4947838;28;20027;-80
2023/03/27 06:02:25;;;;;;;1.45;0.85;;;;;;;;;;4956094;28;20554;-81
2023/03/27 06:04:51;;;;;;;1.33;1.23;;;;;;;;;;4942317;28;20035;-80
2023/03/27 06:07:17;;;;;;;5.57;1.30;;;;;;;;;;4955548;28;20031;-82
2023/03/27 06:09:44;;;;;;;7.10;1.40;;;;;;;;;;4946929;29;20210;-80
2023/03/27 06:12:10;;;;;;;3.10;1.52;;;;;;;;;;4949780;29;20050;-80
2023/03/27 06:14:36;;;;;;;5.03;0.93;;;;;;;;;;4945495;28;20443;-79
2023/03/27 06:17:02;;;;;;;5.95;1.38;;;;;;;;;;4937789;28;20050;-82
2023/03/27 06:19:27;;;;;;;1.67;0.70;;;;;;;;;;4942351;28;20357;-80
2023/03/27 06:21:53;;;;;;;3.85;1.95;;;;;;;;;;4950249;28;20117;-80
2023/03/27 06:24:19;;;;;;;5.60;1.10;;;;;;;;;;4951180;29;20035;-82
2023/03/27 06:26:46;;;;;;;8.07;1.30;;;;;;;;;;4949975;28;21699;-83
2023/03/27 06:29:12;;;;;;;3.10;1.13;;;;;;;;;;4947680;28;20128;-82
2023/03/27 06:31:38;;;;;;;10.07;1.77;;;;;;;;;;4950599;29;20016;-83
2023/03/27 06:34:04;;;;;;;4.65;1.48;;;;;;;;;;4954449;29;20035;-84
2023/03/27 06:36:31;;;;;;;1.73;0.77;;;;;;;;;;4957745;28;20106;-78
2023/03/27 06:38:57;;;;;;;5.00;1.88;;;;;;;;;;4947841;29;20039;-81
2023/03/27 06:41:23;;;;;;;4.70;1.67;;;;;;;;;;4954440;29;20055;-83
2023/03/27 06:43:49;;;;;;;9.23;1.40;;;;;;;;;;4954775;28;20691;-82
2023/03/27 06:46:15;;;;;;;4.47;0.93;;;;;;;;;;4953520;29;20251;-85
2023/03/27 06:48:41;;;;;;;1.30;0.77;;;;;;;;;;4951452;29;20023;-80
2023/03/27 06:51:07;;;;;;;4.35;1.67;;;;;;;;;;4954736;28;20031;-80
2023/03/27 06:53:33;;;;;;;8.93;1.30;;;4.20;99.90;;;;;;4951937;28;20023;-79
2023/03/27 06:55:59;;;;;;;3.22;0.98;;;;;;;;;;4956874;28;20042;-82
2023/03/27 06:58:26;;;;;;;6.13;1.13;;;;;;;;;;4956382;29;20046;-81
2023/03/27 07:00:52;;;;;;;14.23;1.55;;;;;;;;;;4952947;28;20035;-80
2023/03/27 07:03:19;;;;;;;1.95;0.75;;;;;;;;;;4952161;28;20040;-80
2023/03/27 07:05:45;;;;;;;4.18;1.08;;;;;;;;;;4951183;28;20062;-82
2023/03/27 07:08:13;;;;;;;6.07;0.73;;;;;;;;;;4947315;29;20035;-83
2023/03/27 07:10:39;;;;;;;2.22;1.35;;;;;;;;;;4954564;28;20024;-80
2023/03/27 07:13:05;;;;;;;6.45;0.82;;;;;;;;;;4955342;29;20110;-79
2023/03/27 07:15:31;;;;;;;4.57;1.17;;;;;;;;;;4949362;28;20110;-81
2023/03/27 07:17:58;;;;;;;2.72;0.68;;;;;;;;;;4947248;28;20031;-80
2023/03/27 07:20:26;;;;;;;28.08;10.25;;;;;;;;;;4948207;28;20035;-80
2023/03/27 07:22:53;;;;;;;5.78;2.95;;;;;;;;;;4946815;28;20412;-80
2023/03/27 07:25:19;;;;;;;2.20;1.02;;;;;;;;;;4953645;28;20034;-81
2023/03/27 07:27:45;;;;;;;1.98;0.75;;;;;;;;;;4952057;28;20035;-82
2023/03/27 07:30:12;;;;;;;2.65;0.95;;;5.60;99.90;;;;;;4949017;29;20086;-83
2023/03/27 07:32:38;;;;;;;1.83;0.52;;;;;;;;;;4953045;29;20060;-80
2023/03/27 07:35:05;;;;;;;9.02;0.90;;;5.40;99.90;;;;;;4957455;29;20035;-80
2023/03/27 07:37:31;;;;;;;2.03;1.05;;;;;;;;;;4951513;28;20368;-80
2023/03/27 07:39:57;;;;;;;2.47;1.25;;;;;;;;;;4965088;29;20030;-81
2023/03/27 07:42:23;;;;;;;1.15;0.52;;;;;;;;;;4964340;28;20038;-81
2023/03/27 07:44:49;;;;;;;4.93;0.52;;;;;;;;;;4952835;29;20045;-78
2023/03/27 07:47:16;;;;;;;1.45;0.38;;;;;;;;;;4951208;29;20024;-84
2023/03/27 07:49:42;;;;;;;3.45;0.57;;;;;;;;;;4955294;28;20079;-81
2023/03/27 07:52:08;;;;;;;0.32;0.32;;;;;;;;;;4947394;29;20611;-80
2023/03/27 07:54:34;;;;;;;1.75;0.47;;;;;;;;;;4950215;29;20031;-79
2023/03/27 07:57:01;;;;;;;2.38;0.55;;;;;;;;;;4946568;28;20027;-82
2023/03/27 07:59:27;;;;;;;3.60;0.68;;;;;;;;;;4947725;28;20031;-80
2023/03/27 08:01:53;;;;;;;0.75;0.60;;;;;;;;;;4954734;28;20035;-79
2023/03/27 08:04:19;;;;;;;0.95;0.30;;;;;;;;;;4950550;28;20038;-80
2023/03/27 08:06:45;;;;;;;3.38;0.93;;;;;;;;;;4948468;28;20039;-80
2023/03/27 08:09:12;;;;;;;2.17;0.40;;;;;;;;;;4957457;28;20027;-79
2023/03/27 08:11:40;;;;;;;0.63;0.50;;;;;;;;;;4952643;29;20078;-78
2023/03/27 08:14:06;;;;;;;7.80;0.65;;;;;;;;;;4952024;29;20089;-80
2023/03/27 08:16:32;;;;;;;1.58;0.50;;;;;;;;;;4950233;28;20024;-79
2023/03/27 08:19:00;;;;;;;7.57;1.13;;;;;;;;;;4955612;29;20124;-79
2023/03/27 08:21:26;;;;;;;2.97;0.88;;;;;;;;;;4949203;29;20027;-79
2023/03/27 08:23:51;;;;;;;1.80;0.63;;;;;;;;;;4953687;28;20616;-79
2023/03/27 08:26:17;;;;;;;2.83;0.90;;;;;;;;;;4947317;29;20051;-81
2023/03/27 08:28:43;;;;;;;0.93;0.40;;;;;;;;;;4949355;29;20031;-79
2023/03/27 08:31:11;;;;;;;5.07;2.03;;;;;;;;;;4949136;29;20031;-79
2023/03/27 08:33:38;;;;;;;6.63;1.75;;;;;;;;;;4953169;28;20093;-79
2023/03/27 08:36:04;;;;;;;2.70;0.75;;;;;;;;;;4957965;28;20030;-83
2023/03/27 08:38:32;;;;;;;3.72;1.38;;;;;;;;;;4952111;28;20395;-83
2023/03/27 08:40:59;;;;;;;9.02;1.17;;;;;;;;;;4952201;28;20035;-78
2023/03/27 08:43:26;;;;;;;1.77;0.40;;;;;;;;;;4952409;28;20039;-78
2023/03/27 08:45:54;;;;;;;3.45;0.47;;;;;;;;;;4954155;28;20050;-79
2023/03/27 08:48:24;;;;;;;1.30;0.30;;;;;;;;;;4949132;28;20032;-80
2023/03/27 08:50:55;;;;;;;0.52;0.30;;;;;;;;;;4950758;28;20031;-79
2023/03/27 08:53:44;;;;;;;3.65;0.43;;;;;;;;;;4950831;29;20035;-81
2023/03/27 08:56:13;;;;;;;5.45;0.60;;;;;;;;;;4950540;28;20054;-82
2023/03/27 08:58:39;;;;;;;0.90;0.65;;;;;;;;;;4946805;29;20028;-79
2023/03/27 09:01:10;;;;;;;1.70;0.60;;;;;;;;;;4951425;29;20041;-79
2023/03/27 09:03:41;;;;;;;12.90;4.78;;;;;;;;;;4953865;28;20039;-79
2023/03/27 09:06:14;;;;;;;3.58;1.52;;;;;;;;;;4951427;29;20031;-81
2023/03/27 09:08:48;;;;;;;0.70;0.30;;;10.50;98.00;;;;;;4954145;28;20085;-82
2023/03/27 09:11:20;;;;;;;2.75;0.85;;;10.10;95.40;;;;;;4951472;28;20418;-82
2023/03/27 09:13:50;;;;;;;1.13;0.43;;;;;;;;;;4959748;28;20060;-81
2023/03/27 09:16:20;;;;;;;3.42;0.50;;;;;;;;;;4950914;28;20155;-81
2023/03/27 09:18:45;;;;;;;1.73;0.40;;;;;;;;;;4958533;28;20027;-88
2023/03/27 09:21:18;;;;;;;6.68;1.00;;;;;;;;;;4961956;28;20031;-81
2023/03/27 09:23:45;;;;;;;7.10;1.00;;;8.80;98.40;;;;;;4964870;28;20039;-86
2023/03/27 09:26:28;;;;;;;1.42;0.75;;;;;;;;;;4961501;28;20036;-82
2023/03/27 09:29:00;;;;;;;3.42;1.98;;;;;;;;;;4949081;28;20038;-81
2023/03/27 09:31:28;;;;;;;8.07;1.10;;;;;;;;;;4955877;28;20043;-78
2023/03/27 09:33:55;;;;;;;2.70;0.55;;;;;;;;;;4951206;28;20036;-78
2023/03/27 09:36:21;;;;;;;1.27;0.50;;;;;;;;;;4952344;28;20023;-79
2023/03/27 09:38:49;;;;;;;2.35;0.82;;;;;;;;;;4951401;28;20038;-79
2023/03/27 09:41:26;;;;;;;1.23;0.47;;;;;;;;;;4955236;28;20027;-80
2023/03/27 09:43:58;;;;;;;3.80;0.55;;;8.20;99.90;;;;;;4951483;28;20043;-79
2023/03/27 09:46:26;;;;;;;10.63;0.80;;;;;;;;;;4952547;28;20031;-79
2023/03/27 09:49:03;;;;;;;2.38;0.40;;;;;;;;;;4954937;28;20037;-79
2023/03/27 09:51:36;;;;;;;6.03;0.70;;;;;;;;;;4955887;28;20122;-79
2023/03/27 09:54:02;;;;;;;;;;;;;;;;;;4955697;29;20039;-81
2023/03/27 09:56:29;;;;;;;1.58;0.55;;;;;;;;;;4949624;28;20517;-79
2023/03/27 09:58:56;;;;;;;2.17;0.88;;;;;;;;;;4950849;28;20031;-80
2023/03/27 10:01:29;;;;;;;3.05;0.70;;;;;;;;;;4954203;29;20485;-80
2023/03/27 10:03:57;;;;;;;4.30;1.13;;;7.30;99.90;;;;;;4956718;28;20050;-80
2023/03/27 10:06:29;;;;;;;1.33;0.40;;;;;;;;;;4948888;28;20038;-79
2023/03/27 10:08:55;;;;;;;5.05;0.85;;;;;;;;;;4956206;28;20043;-80
2023/03/27 10:11:24;;;;;;;1.10;0.70;;;;;;;;;;4948680;28;20035;-80
2023/03/27 10:13:51;;;;;;;0.98;0.80;;;;;;;;;;4953664;28;20027;-80
2023/03/27 10:16:19;;;;;;;0.80;0.43;;;;;;;;;;4956309;28;20066;-81
2023/03/27 10:18:52;;;;;;;0.75;0.63;;;6.50;99.90;;;;;;4949986;29;20035;-81
2023/03/27 10:21:23;;;;;;;1.23;0.47;;;;;;;;;;4944628;29;20039;-80
2023/03/27 10:23:50;;;;;;;3.30;0.50;;;;;;;;;;4950687;29;20043;-81
2023/03/27 10:26:18;;;;;;;0.22;0.20;;;;;;;;;;4951106;29;20023;-80
2023/03/27 10:28:49;;;;;;;4.28;1.55;;;;;;;;;;4954459;28;20054;-80
2023/03/27 10:31:31;;;;;;;0.73;0.47;;;;;;;;;;4943834;28;20027;-80
2023/03/27 10:33:59;;;;;;;1.50;0.60;;;;;;;;;;4948052;28;20088;-81
2023/03/27 10:36:26;;;;;;;0.77;0.40;;;;;;;;;;4947403;29;20039;-80
2023/03/27 10:38:55;;;;;;;7.15;0.65;;;;;;;;;;4946237;28;20047;-80
2023/03/27 10:41:23;;;;;;;0.52;0.32;;;7.70;99.90;;;;;;4944709;29;20035;-80
2023/03/27 10:43:49;;;;;;;4.85;0.30;;;;;;;;;;4947802;29;20086;-80
2023/03/27 10:46:24;;;;;;;5.20;0.85;;;;;;;;;;4944606;29;20483;-80
2023/03/27 10:48:59;;;;;;;3.30;0.47;;;;;;;;;;4952094;29;20047;-82
2023/03/27 10:51:37;;;;;;;5.68;0.52;;;7.90;97.20;;;;;;4950959;28;20058;-80
2023/03/27 10:54:36;;;;;;;2.78;0.20;;;8.30;96.60;;;;;;4946421;28;20690;-80
2023/03/27 10:57:09;;;;;;;0.32;0.20;;;8.20;95.20;;;;;;4928470;28;20119;-80
2023/03/27 10:59:49;;;;;;;0.35;0.25;;;8.20;96.80;;;;;;4950571;29;20026;-82
2023/03/27 11:02:34;;;;;;;1.23;0.43;;;;;;;;;;4948384;29;20043;-80
2023/03/27 11:05:11;;;;;;;0.43;0.30;;;;;;;;;;4951973;28;20118;-82
2023/03/27 11:07:40;;;;;;;2.22;0.40;;;;;;;;;;4957061;28;20027;-81
2023/03/27 11:10:26;;;;;;;2.80;0.38;;;;;;;;;;4948970;29;20032;-81
2023/03/27 11:12:58;;;;;;;0.85;0.30;;;;;;;;;;4950691;28;20086;-79
2023/03/27 11:15:40;;;;;;;2.78;0.30;;;8.50;95.10;;;;;;4953016;28;20518;-80
2023/03/27 11:18:13;;;;;;;1.98;0.82;;;;;;;;;;4958967;28;20742;-81
2023/03/27 11:20:59;;;;;;;0.85;0.43;;;;;;;;;;4948188;28;20169;-80
2023/03/27 11:23:35;;;;;;;2.92;0.55;;;;;;;;;;4953021;28;20514;-82
2023/03/27 11:26:04;;;;;;;1.42;0.32;;;;;;;;;;4963505;28;20547;-79
2023/03/27 11:28:42;;;;;;;2.20;0.85;;;;;;;;;;4952041;28;20027;-79
2023/03/27 11:31:24;;;;;;;0.50;0.28;;;;;;;;;;4951984;28;20054;-77
2023/03/27 11:34:06;;;;;;;3.03;1.00;;;;;;;;;;4944231;28;20059;-79
2023/03/27 11:36:43;;;;;;;2.10;0.38;;;;;;;;;;4956525;28;20303;-77
2023/03/27 11:39:16;;;;;;;0.28;0.20;;;;;;;;;;4947139;28;20035;-78
2023/03/27 11:41:53;;;;;;;1.27;0.52;;;8.90;93.80;;;;;;4959450;28;20039;-80
2023/03/27 11:44:19;;;;;;;3.80;0.43;;;;;;;;;;4953817;28;20035;-80
2023/03/27 11:46:54;;;;;;;6.82;0.63;;;8.50;93.00;;;;;;4954755;28;20569;-83
2023/03/27 11:49:35;;;;;;;1.77;0.52;;;;;;;;;;4951209;28;20034;-81
2023/03/27 11:52:08;;;;;;;1.40;0.50;;;;;;;;;;4957003;29;20053;-80
2023/03/27 11:54:47;;;;;;;3.47;0.65;;;;;;;;;;4958001;28;20058;-81
2023/03/27 11:57:31;;;;;;;1.45;0.35;;;;;;;;;;4960841;28;20054;-81
2023/03/27 12:00:15;;;;;;;9.15;1.08;;;;;;;;;;4970944;28;20131;-80
2023/03/27 12:03:00;;;;;;;3.70;1.15;;;;;;;;;;4964461;28;20051;-80
2023/03/27 12:05:45;;;;;;;2.38;0.68;;;;;;;;;;4952291;28;20043;-80
2023/03/27 12:08:23;;;;;;;1.48;0.45;;;;;;;;;;4955215;29;20058;-78
2023/03/27 12:10:50;;;;;;;1.10;0.43;;;;;;;;;;4954468;28;20031;-81
2023/03/27 12:13:16;;;;;;;0.63;0.45;;;;;;;;;;4956435;28;20030;-82
2023/03/27 12:15:55;;;;;;;1.42;0.70;;;;;;;;;;4952707;28;20035;-80
2023/03/27 12:18:29;;;;;;;12.80;1.05;;;8.40;98.60;;;;;;4946615;28;20027;-78
2023/03/27 12:21:06;;;;;;;3.58;0.85;;;;;;;;;;4952724;29;20039;-79
2023/03/27 12:23:48;;;;;;;0.47;0.30;;;;;;;;;;4955233;28;20134;-80
2023/03/27 12:26:20;;;;;;;4.88;0.73;;;;;;;;;;4956210;28;20081;-78
2023/03/27 12:28:49;;;;;;;3.42;0.47;;;;;;;;;;4948898;28;20487;-76
2023/03/27 12:31:15;;;;;;;5.18;0.40;;;;;;;;;;4951553;28;20045;-77
2023/03/27 12:34:01;;;;;;;0.47;0.20;;;;;;;;;;4951313;28;20043;-77
2023/03/27 12:36:30;;;;;;;2.08;0.57;;;;;;;;;;4947647;29;20175;-77
2023/03/27 12:38:57;;;;;;;;;;;9.00;93.50;;;;;;4953741;28;20464;-77
2023/03/27 12:41:30;;;;;;;;;;;9.90;95.20;;;;;;4956490;28;19965;-77
2023/03/27 12:43:56;;;;;;;;;;;;;;;;;;4939516;28;19918;-78
2023/03/27 12:46:22;;;;;;;0.85;0.20;;;;;;;;;;4957697;28;20290;-78
2023/03/27 12:48:51;;;;;;;0.52;0.20;;;;;;;;;;4955837;28;20034;-78
2023/03/27 12:51:19;;;;;;;2.92;0.50;;;8.40;97.80;;;;;;4951043;28;20386;-79
2023/03/27 12:53:49;;;;;;;2.47;0.82;;;;;;;;;;4949430;28;20023;-77
2023/03/27 12:56:15;;;;;;;8.98;3.20;;;;;;;;;;4955260;28;20035;-79
2023/03/27 12:58:42;;;;;;;1.83;0.98;;;;;;;;;;4954845;28;20043;-77
2023/03/27 13:01:11;;;;;;;4.43;0.70;;;7.30;99.50;;;;;;4952871;28;20043;-77
2023/03/27 13:03:43;;;;;;;4.47;0.57;;;;;;;;;;4947008;28;20035;-78
2023/03/27 13:06:16;;;;;;;0.22;0.10;;;;;;;;;;4952418;28;20050;-77
2023/03/27 13:09:01;;;;;;;0.55;0.20;;;;;;;;;;4943864;28;20031;-77
2023/03/27 13:11:30;;;;;;;2.65;0.30;;;;;;;;;;4938664;28;20043;-78
2023/03/27 13:14:18;;;;;;;4.55;0.30;;;;;;;;;;4953723;28;20083;-78
2023/03/27 13:16:55;;;;;;;1.25;0.30;;;7.00;99.90;;;;;;4954036;28;20551;-77
2023/03/27 13:19:26;;;;;;;2.30;0.40;;;;;;;;;;4942764;28;20554;-78
2023/03/27 13:21:55;;;;;;;1.55;0.22;;;;;;;;;;4943403;28;20039;-79
2023/03/27 13:24:24;;;;;;;1.88;0.20;;;;;;;;;;4950734;28;20451;-77
2023/03/27 13:27:02;;;;;;;0.57;0.22;;;;;;;;;;4948517;28;20083;-78
2023/03/27 13:29:32;;;;;;;4.93;0.88;;;;;;;;;;4948617;29;20027;-78
2023/03/27 13:31:58;;;;;;;;;;;;;;;;;;4953756;29;20030;-77
2023/03/27 13:34:31;;;;;;;;;;;9.10;99.90;;;;;;4948783;28;19910;-77
2023/03/27 13:36:57;;;;;;;;;;;;;;;;;;4946312;29;20386;-77
2023/03/27 13:39:23;;;;;;;;;;;;;;;;;;4949145;28;19973;-77
2023/03/27 13:41:50;;;;;;;;;;;;;;;;;;4949641;29;20359;-77
2023/03/27 13:44:22;;;;;;;;;;;8.10;99.90;;;;;;4950125;28;20364;-77
2023/03/27 13:46:50;;;;;;;;;;;8.00;99.90;;;;;;4946952;29;19911;-76
2023/03/27 13:49:25;;;;;;;;;;;7.90;99.90;;;;;;4947433;29;19965;-77
2023/03/27 13:52:08;;;;;;;;;;;8.00;99.90;;;;;;4950519;29;19910;-76
2023/03/27 13:54:44;;;;;;;3.30;0.75;;;;;;;;;;4947218;28;19914;-77
2023/03/27 13:57:36;;;;;;;3.22;0.47;;;;;;;;;;4951580;28;20074;-79
2023/03/27 14:00:24;;;;;;;1.98;0.82;;;;;;;;;;4923703;28;20043;-80
2023/03/27 14:02:53;;;;;;;7.70;1.48;;;;;;;;;;4943449;28;20079;-79
2023/03/27 14:05:23;;;;;;;3.25;1.40;;;;;;;;;;4950136;28;20501;-79
2023/03/27 14:07:51;;;;;;;;;;;;;;;;;;4947917;29;20110;-78
2023/03/27 14:10:17;;;;;;;;;;;;;;;;;;4947794;28;19925;-78
2023/03/27 14:12:43;;;;;;;;;;;;;;;;;;4953251;28;19989;-79
2023/03/27 14:15:24;;;;;;;;;;;4.50;99.90;;;;;;4954854;28;19954;-79
2023/03/27 14:17:49;;;;;;;;;;;;;;;;;;4944745;28;19946;-79
2023/03/27 14:20:17;;;;;;;;;;;;;;;;;;4946218;28;19919;-80
2023/03/27 14:22:44;;;;;;;;;;;;;;;;;;4947441;28;19918;-80
2023/03/27 14:25:10;;;;;;;;;;;;;;;;;;4949987;28;19918;-82
2023/03/27 14:27:35;;;;;;;;;;;;;;;;;;4946018;28;19914;-82
2023/03/27 14:30:06;;;;;;;;;;;;;;;;;;4950826;28;19964;-78
2023/03/27 14:32:32;;;;;;;;;;;;;;;;;;4952461;28;20378;-81
2023/03/27 14:35:03;;;;;;;;;;;;;;;;;;4943261;28;19919;-81
2023/03/27 14:37:29;;;;;;;;;;;;;;;;;;4945068;28;20381;-81
2023/03/27 14:39:55;;;;;;;;;;;;;;;;;;4945587;28;19914;-80
2023/03/27 14:42:21;;;;;;;;;;;;;;;;;;4945430;29;19990;-79
2023/03/27 14:44:46;;;;;;;;;;;;;;;;;;4943753;28;19946;-79
2023/03/27 14:47:13;;;;;;;;;;;;;;;;;;4964616;28;19921;-79
2023/03/27 14:49:39;;;;;;;;;;;;;;;;;;4961446;28;20315;-78
2023/03/27 14:52:06;;;;;;;;;;;;;;;;;;4970854;28;19922;-78
2023/03/27 14:54:32;;;;;;;;;;;;;;;;;;4966166;28;19918;-79